Time;durP1;ratioP1;P1;durP2;ratioP2;P2;SDS_P1;SDS_P2;PMS_P1;PMS_P2;Temp;Humidity;BMP_temperature;BMP_pressure;BME280_temperature;BME280_humidity;BME280_pressure;Samples;Min_cycle;Max_cycle;Signal;HPM_P1;HPM_P2
2024/01/08 00:00:56;;;;;;;7.97;4.30;;;-2.70;99.90;;;;;;5038713;28;22875;-66
2024/01/08 00:03:22;;;;;;;7.13;4.43;;;-2.70;99.90;;;;;;5040850;28;20163;-65
2024/01/08 00:05:48;;;;;;;11.30;5.18;;;-2.80;99.90;;;;;;5035472;28;20128;-65
2024/01/08 00:08:14;;;;;;;8.75;4.55;;;-2.70;99.90;;;;;;5027680;28;20037;-71
2024/01/08 00:10:40;;;;;;;8.50;4.57;;;-2.70;99.90;;;;;;5030625;28;20049;-66
2024/01/08 00:13:06;;;;;;;7.45;4.30;;;-2.80;99.90;;;;;;5016825;28;20033;-65
2024/01/08 00:15:32;;;;;;;8.25;4.80;;;-2.80;99.90;;;;;;5024701;28;20041;-66
2024/01/08 00:17:58;;;;;;;7.65;4.10;;;-2.80;99.90;;;;;;5035475;28;20473;-66
2024/01/08 00:20:23;;;;;;;8.80;4.68;;;-2.80;99.90;;;;;;5024097;28;20041;-66
2024/01/08 00:22:49;;;;;;;10.02;4.47;;;-2.80;99.90;;;;;;5038069;28;20033;-65
2024/01/08 00:25:15;;;;;;;9.65;4.72;;;-2.80;99.90;;;;;;5045562;28;20041;-65
2024/01/08 00:27:41;;;;;;;9.93;4.78;;;-2.80;99.90;;;;;;5030967;28;20049;-65
2024/01/08 00:30:07;;;;;;;9.35;4.82;;;-2.90;99.90;;;;;;5031252;28;20427;-65
2024/01/08 00:32:33;;;;;;;11.23;4.57;;;-2.90;99.90;;;;;;5036428;28;20042;-65
2024/01/08 00:34:58;;;;;;;9.30;5.07;;;-2.90;99.90;;;;;;5015512;28;20093;-65
2024/01/08 00:37:24;;;;;;;9.68;4.53;;;-2.90;99.90;;;;;;5028158;28;20047;-65
2024/01/08 00:39:49;;;;;;;10.15;5.10;;;-2.90;99.90;;;;;;5041360;28;20037;-65
2024/01/08 00:42:15;;;;;;;8.50;4.53;;;-2.90;99.90;;;;;;5035689;28;20112;-65
2024/01/08 00:44:41;;;;;;;10.77;4.90;;;-2.90;99.90;;;;;;5019698;28;20033;-65
2024/01/08 00:47:06;;;;;;;12.25;5.20;;;-2.90;99.90;;;;;;5036580;28;20041;-66
2024/01/08 00:49:32;;;;;;;9.15;4.72;;;-3.00;99.90;;;;;;5039748;28;20034;-65
2024/01/08 00:51:57;;;;;;;9.85;5.15;;;-3.00;99.90;;;;;;5028858;28;20041;-65
2024/01/08 00:54:23;;;;;;;10.80;4.82;;;-2.90;99.90;;;;;;5039392;28;20043;-65
2024/01/08 00:56:48;;;;;;;9.43;4.50;;;-2.90;99.90;;;;;;5031600;28;20087;-65
2024/01/08 00:59:14;;;;;;;9.70;4.60;;;-2.80;99.90;;;;;;5014545;28;20045;-65
2024/01/08 01:01:40;;;;;;;12.20;5.85;;;-2.70;99.90;;;;;;5029775;28;20060;-65
2024/01/08 01:04:05;;;;;;;9.32;3.92;;;-2.60;99.90;;;;;;5031864;28;20033;-65
2024/01/08 01:06:31;;;;;;;10.68;5.40;;;-2.50;99.90;;;;;;5029876;28;20048;-65
2024/01/08 01:08:57;;;;;;;8.27;5.00;;;-2.40;99.90;;;;;;5015580;28;20068;-66
2024/01/08 01:11:22;;;;;;;9.73;4.80;;;-2.30;99.90;;;;;;5032342;28;20442;-65
2024/01/08 01:13:48;;;;;;;9.02;4.60;;;-2.30;99.90;;;;;;5038785;28;20052;-65
2024/01/08 01:16:14;;;;;;;11.93;5.88;;;-2.20;99.90;;;;;;5037188;28;20029;-66
2024/01/08 01:18:39;;;;;;;11.60;5.22;;;-2.20;99.90;;;;;;5034157;28;20109;-65
2024/01/08 01:21:05;;;;;;;9.40;5.25;;;-2.20;99.90;;;;;;5034908;28;20584;-66
2024/01/08 01:23:31;;;;;;;7.78;4.63;;;-2.10;99.90;;;;;;5030064;28;20060;-65
2024/01/08 01:25:57;;;;;;;9.13;5.03;;;-2.10;99.90;;;;;;5029656;28;20037;-66
2024/01/08 01:28:23;;;;;;;8.73;5.10;;;-2.10;99.90;;;;;;5041886;28;20135;-65
2024/01/08 01:30:48;;;;;;;10.00;5.30;;;-2.00;99.90;;;;;;5032243;28;20049;-66
2024/01/08 01:33:14;;;;;;;11.20;5.22;;;-2.00;99.90;;;;;;5034619;28;20049;-68
2024/01/08 01:35:40;;;;;;;11.55;5.45;;;-1.90;99.90;;;;;;5028635;28;20171;-65
2024/01/08 01:38:06;;;;;;;9.38;5.38;;;-1.90;99.90;;;;;;5033385;28;20077;-65
2024/01/08 01:40:32;;;;;;;10.20;5.13;;;-1.90;99.90;;;;;;5035791;28;20508;-65
2024/01/08 01:42:57;;;;;;;9.95;5.20;;;-1.80;99.90;;;;;;5014122;28;20079;-65
2024/01/08 01:45:23;;;;;;;9.70;5.03;;;-1.80;99.90;;;;;;5030050;28;20136;-66
2024/01/08 01:47:55;;;;;;;8.77;4.95;;;-1.70;99.90;;;;;;5032884;28;20049;-65
2024/01/08 01:50:24;;;;;;;10.85;5.70;;;-1.70;99.90;;;;;;5019465;28;20061;-66
2024/01/08 01:52:50;;;;;;;10.70;5.78;;;-1.70;99.90;;;;;;5034927;28;20033;-65
2024/01/08 01:55:16;;;;;;;8.68;5.20;;;-1.70;99.90;;;;;;5031771;28;20060;-65
2024/01/08 01:57:43;;;;;;;12.10;6.13;;;-1.70;99.90;;;;;;5047404;28;20037;-65
2024/01/08 02:00:09;;;;;;;12.65;6.22;;;-1.70;99.90;;;;;;5027507;28;20509;-66
2024/01/08 02:02:35;;;;;;;14.43;6.97;;;-1.60;99.90;;;;;;5016682;28;20087;-64
2024/01/08 02:05:01;;;;;;;13.65;6.85;;;-1.60;99.90;;;;;;5033736;28;20386;-65
2024/01/08 02:07:27;;;;;;;12.38;6.25;;;-1.60;99.90;;;;;;5025415;28;20071;-65
2024/01/08 02:09:53;;;;;;;12.88;5.95;;;-1.60;99.90;;;;;;5038170;28;20132;-65
2024/01/08 02:12:20;;;;;;;10.70;6.03;;;-1.60;99.90;;;;;;5032316;28;20048;-65
2024/01/08 02:14:46;;;;;;;13.18;5.75;;;-1.50;99.90;;;;;;5028243;28;20045;-65
2024/01/08 02:17:12;;;;;;;13.98;5.97;;;-1.50;99.90;;;;;;5032213;28;20053;-66
2024/01/08 02:19:38;;;;;;;13.00;6.60;;;-1.50;99.90;;;;;;5042787;28;20041;-65
2024/01/08 02:22:03;;;;;;;9.93;5.55;;;-1.50;99.90;;;;;;5013091;28;20044;-65
2024/01/08 02:24:29;;;;;;;11.43;5.72;;;-1.50;99.90;;;;;;5041250;28;20460;-65
2024/01/08 02:26:58;;;;;;;13.85;5.97;;;-1.50;99.90;;;;;;5027998;28;20039;-66
2024/01/08 02:29:27;;;;;;;9.90;5.60;;;-1.50;99.90;;;;;;5040388;28;20037;-66
2024/01/08 02:31:52;;;;;;;13.40;6.78;;;-1.50;99.90;;;;;;5037854;28;20155;-65
2024/01/08 02:34:18;;;;;;;10.43;5.93;;;-1.40;99.90;;;;;;5027735;28;20854;-65
2024/01/08 02:36:43;;;;;;;12.23;5.97;;;-1.40;99.90;;;;;;5032521;28;20029;-65
2024/01/08 02:39:09;;;;;;;14.93;6.38;;;-1.40;99.90;;;;;;5028172;28;20393;-65
2024/01/08 02:41:34;;;;;;;9.80;5.45;;;-1.40;99.90;;;;;;5034837;28;20103;-66
2024/01/08 02:44:00;;;;;;;11.70;5.63;;;-1.30;99.90;;;;;;5040486;28;20037;-65
2024/01/08 02:46:26;;;;;;;13.75;5.82;;;-1.30;99.90;;;;;;5014355;28;20033;-65
2024/01/08 02:48:51;;;;;;;11.77;5.68;;;-1.30;99.90;;;;;;5036858;28;20033;-65
2024/01/08 02:51:17;;;;;;;12.27;6.75;;;-1.30;99.90;;;;;;5030208;28;20044;-66
2024/01/08 02:53:43;;;;;;;12.90;6.22;;;-1.30;99.90;;;;;;5024948;28;20474;-68
2024/01/08 02:56:21;;;;;;;13.30;6.35;;;-1.30;99.90;;;;;;5036815;28;20043;-66
2024/01/08 02:58:48;;;;;;;12.00;6.05;;;-1.30;99.90;;;;;;5036405;28;20045;-66
2024/01/08 03:01:13;;;;;;;14.30;6.50;;;-1.30;99.90;;;;;;5037613;28;20029;-67
2024/01/08 03:03:39;;;;;;;11.73;6.03;;;-1.20;99.90;;;;;;5018086;28;20321;-66
2024/01/08 03:06:05;;;;;;;13.32;5.53;;;-1.20;99.90;;;;;;5015470;28;20040;-65
2024/01/08 03:08:30;;;;;;;14.02;6.53;;;-1.20;99.90;;;;;;5042548;28;20140;-66
2024/01/08 03:10:56;;;;;;;11.88;6.07;;;-1.20;99.90;;;;;;5013834;28;20064;-66
2024/01/08 03:13:22;;;;;;;12.13;5.60;;;-1.20;99.90;;;;;;5040074;28;20114;-66
2024/01/08 03:15:47;;;;;;;10.77;6.05;;;-1.20;99.90;;;;;;5022543;28;20458;-66
2024/01/08 03:18:13;;;;;;;11.45;6.00;;;-1.20;99.90;;;;;;5019088;28;20045;-66
2024/01/08 03:20:39;;;;;;;10.88;5.53;;;-1.20;99.90;;;;;;5040513;28;20572;-66
2024/01/08 03:23:05;;;;;;;15.13;6.22;;;-1.20;99.90;;;;;;5042796;28;20041;-66
2024/01/08 03:25:31;;;;;;;13.40;6.10;;;-1.20;99.90;;;;;;5031865;28;20037;-66
2024/01/08 03:27:56;;;;;;;9.88;5.70;;;-1.20;99.90;;;;;;5020923;28;20095;-66
2024/01/08 03:30:22;;;;;;;12.23;6.10;;;-1.10;99.90;;;;;;5036084;28;20069;-66
2024/01/08 03:32:47;;;;;;;11.00;6.25;;;-1.10;99.90;;;;;;5022741;28;20040;-66
2024/01/08 03:35:13;;;;;;;11.18;5.60;;;-1.10;99.90;;;;;;5018290;28;20069;-66
2024/01/08 03:37:39;;;;;;;10.55;5.32;;;-1.10;99.90;;;;;;5032862;28;20069;-66
2024/01/08 03:40:06;;;;;;;10.65;5.57;;;-1.10;99.90;;;;;;5044686;28;20111;-66
2024/01/08 03:42:32;;;;;;;11.65;5.53;;;-1.10;99.90;;;;;;5011497;28;20121;-65
2024/01/08 03:44:58;;;;;;;11.13;5.95;;;-1.10;99.90;;;;;;5027198;28;20048;-66
2024/01/08 03:47:24;;;;;;;9.73;5.22;;;-1.10;99.90;;;;;;5036718;28;20346;-66
2024/01/08 03:49:50;;;;;;;12.18;5.75;;;-1.10;99.90;;;;;;5028310;28;20099;-66
2024/01/08 03:52:15;;;;;;;8.40;4.72;;;-1.10;99.90;;;;;;5030076;28;20033;-66
2024/01/08 03:54:41;;;;;;;10.55;5.10;;;-1.10;99.90;;;;;;5041672;28;20064;-66
2024/01/08 03:57:06;;;;;;;7.75;4.40;;;-1.20;99.90;;;;;;5026366;28;20117;-66
2024/01/08 03:59:32;;;;;;;8.13;5.10;;;-1.20;99.90;;;;;;5033622;28;20136;-66
2024/01/08 04:01:58;;;;;;;10.25;5.45;;;-1.20;99.90;;;;;;5030756;28;20470;-65
2024/01/08 04:04:23;;;;;;;10.32;4.90;;;-1.20;99.90;;;;;;5013330;28;20417;-66
2024/01/08 04:06:49;;;;;;;9.40;4.63;;;-1.20;99.90;;;;;;5010524;28;20128;-66
2024/01/08 04:09:17;;;;;;;12.07;4.70;;;-1.20;99.90;;;;;;5028573;28;20088;-66
2024/01/08 04:11:42;;;;;;;7.47;4.57;;;-1.20;99.90;;;;;;5043022;28;20663;-66
2024/01/08 04:14:08;;;;;;;8.23;4.50;;;-1.20;99.90;;;;;;5027216;28;20033;-66
2024/01/08 04:16:34;;;;;;;11.50;4.95;;;-1.20;99.90;;;;;;5033622;28;20091;-66
2024/01/08 04:18:59;;;;;;;7.45;4.63;;;-1.20;99.90;;;;;;5036631;28;20056;-66
2024/01/08 04:21:25;;;;;;;11.02;4.70;;;-1.20;99.90;;;;;;5026177;28;20094;-66
2024/01/08 04:23:50;;;;;;;9.38;4.35;;;-1.30;99.90;;;;;;5011075;28;20056;-66
2024/01/08 04:26:17;;;;;;;7.30;4.45;;;-1.30;99.90;;;;;;5033704;28;20040;-66
2024/01/08 04:28:43;;;;;;;9.45;4.50;;;-1.30;99.90;;;;;;5025441;28;20037;-67
2024/01/08 04:31:17;;;;;;;10.23;4.57;;;-1.30;99.90;;;;;;5043046;28;20057;-66
2024/01/08 04:33:42;;;;;;;7.60;4.28;;;-1.30;99.90;;;;;;5014059;28;20128;-66
2024/01/08 04:36:08;;;;;;;9.73;4.60;;;-1.30;99.90;;;;;;5034792;28;20161;-66
2024/01/08 04:38:34;;;;;;;12.45;5.13;;;-1.30;99.90;;;;;;5010890;28;20517;-65
2024/01/08 04:40:59;;;;;;;7.88;4.25;;;-1.30;99.90;;;;;;5031013;28;20029;-66
2024/01/08 04:43:25;;;;;;;6.38;3.85;;;-1.30;99.90;;;;;;5027589;28;20518;-66
2024/01/08 04:45:50;;;;;;;6.10;4.03;;;-1.30;99.90;;;;;;5035731;28;20041;-65
2024/01/08 04:48:16;;;;;;;8.70;3.95;;;-1.40;99.90;;;;;;5031636;28;20163;-65
2024/01/08 04:50:41;;;;;;;7.85;3.95;;;-1.40;99.90;;;;;;5031841;28;20044;-66
2024/01/08 04:53:07;;;;;;;6.07;3.95;;;-1.40;99.90;;;;;;5011431;28;20029;-67
2024/01/08 04:55:33;;;;;;;6.07;3.55;;;-1.40;99.90;;;;;;5030915;28;20385;-66
2024/01/08 04:57:58;;;;;;;7.60;4.60;;;-1.40;99.90;;;;;;5017352;28;20129;-66
2024/01/08 05:00:24;;;;;;;7.65;4.05;;;-1.50;99.90;;;;;;5029003;28;20052;-65
2024/01/08 05:02:49;;;;;;;7.25;4.05;;;-1.40;99.90;;;;;;5043606;28;20036;-65
2024/01/08 05:05:16;;;;;;;6.20;3.78;;;-1.40;99.90;;;;;;5035149;28;20575;-64
2024/01/08 05:07:41;;;;;;;9.57;4.22;;;-1.40;99.90;;;;;;5034783;28;20064;-65
2024/01/08 05:10:07;;;;;;;6.50;3.75;;;-1.50;99.90;;;;;;5051070;28;20083;-65
2024/01/08 05:12:33;;;;;;;8.93;4.05;;;-1.50;99.90;;;;;;5017306;28;20087;-65
2024/01/08 05:14:58;;;;;;;7.97;3.78;;;-1.60;99.90;;;;;;5043227;28;20354;-65
2024/01/08 05:17:24;;;;;;;6.18;3.83;;;-1.60;99.90;;;;;;5038840;28;20047;-64
2024/01/08 05:19:52;;;;;;;7.82;4.57;;;-1.70;99.90;;;;;;5017238;28;20073;-64
2024/01/08 05:22:18;;;;;;;11.00;4.97;;;-1.70;99.90;;;;;;5020034;28;20546;-65
2024/01/08 05:24:45;;;;;;;7.95;3.95;;;-1.70;99.90;;;;;;5039766;28;20049;-65
2024/01/08 05:27:11;;;;;;;6.45;4.35;;;-1.70;99.90;;;;;;5035386;28;20161;-65
2024/01/08 05:29:37;;;;;;;11.40;5.18;;;-1.70;99.90;;;;;;5036019;28;20131;-64
2024/01/08 05:32:02;;;;;;;8.85;4.50;;;-1.70;99.90;;;;;;5029665;28;20136;-65
2024/01/08 05:34:28;;;;;;;9.05;4.47;;;-1.70;99.90;;;;;;5037938;28;20480;-65
2024/01/08 05:36:54;;;;;;;8.00;4.30;;;-1.70;99.90;;;;;;5029578;28;20139;-65
2024/01/08 05:39:19;;;;;;;7.03;4.43;;;-1.70;99.90;;;;;;5041933;28;20044;-65
2024/01/08 05:41:45;;;;;;;8.75;4.35;;;-1.70;99.90;;;;;;5029650;28;20037;-65
2024/01/08 05:44:11;;;;;;;11.98;4.97;;;-1.70;99.90;;;;;;5019207;28;23110;-65
2024/01/08 05:46:44;;;;;;;10.07;4.45;;;-1.70;99.90;;;;;;5038084;28;20034;-64
2024/01/08 05:49:10;;;;;;;12.07;6.05;;;-1.70;99.90;;;;;;5031561;28;20423;-64
2024/01/08 05:51:36;;;;;;;11.93;5.07;;;-1.70;99.90;;;;;;5035329;28;20029;-65
2024/01/08 05:54:02;;;;;;;11.98;5.93;;;-1.70;99.90;;;;;;5029828;28;20093;-65
2024/01/08 05:56:28;;;;;;;10.23;4.70;;;-1.60;99.90;;;;;;5044119;28;20056;-64
2024/01/08 05:58:54;;;;;;;10.63;4.90;;;-1.60;99.90;;;;;;5030328;28;20041;-64
2024/01/08 06:01:21;;;;;;;8.75;4.72;;;-1.60;99.90;;;;;;5042088;28;20137;-64
2024/01/08 06:03:46;;;;;;;8.38;5.28;;;-1.60;99.90;;;;;;5028510;28;20053;-65
2024/01/08 06:06:13;;;;;;;11.45;5.32;;;-1.60;99.90;;;;;;5034058;28;20476;-65
2024/01/08 06:08:40;;;;;;;9.65;4.75;;;-1.60;99.90;;;;;;5021195;28;20116;-64
2024/01/08 06:11:09;;;;;;;9.02;4.43;;;-1.60;99.90;;;;;;5036433;28;20650;-65
2024/01/08 06:13:36;;;;;;;11.77;5.00;;;-1.60;99.90;;;;;;5032733;28;20037;-65
2024/01/08 06:16:02;;;;;;;8.95;4.43;;;-1.60;99.90;;;;;;5041996;28;20072;-65
2024/01/08 06:18:29;;;;;;;9.07;4.25;;;-1.50;99.90;;;;;;5033143;28;20327;-67
2024/01/08 06:20:56;;;;;;;10.57;4.28;;;-1.50;99.90;;;;;;5035063;28;20068;-64
2024/01/08 06:23:21;;;;;;;10.43;4.35;;;-1.60;99.90;;;;;;5039297;28;20041;-66
2024/01/08 06:25:47;;;;;;;8.00;4.32;;;-1.50;99.90;;;;;;5038901;28;20114;-64
2024/01/08 06:28:13;;;;;;;10.55;5.20;;;-1.50;99.90;;;;;;5037434;28;20041;-64
2024/01/08 06:30:39;;;;;;;10.27;5.22;;;-1.50;99.90;;;;;;5028766;28;20049;-65
2024/01/08 06:33:05;;;;;;;7.97;4.38;;;-1.50;99.90;;;;;;5038031;28;20406;-65
2024/01/08 06:35:31;;;;;;;11.23;5.05;;;-1.50;99.90;;;;;;5046764;28;20040;-65
2024/01/08 06:37:57;;;;;;;10.85;4.50;;;-1.50;99.90;;;;;;5023907;28;20041;-65
2024/01/08 06:40:22;;;;;;;12.35;4.53;;;-1.50;99.90;;;;;;5018883;28;20056;-64
2024/01/08 06:42:48;;;;;;;8.73;4.20;;;-1.40;99.90;;;;;;5013511;28;20397;-64
2024/01/08 06:45:14;;;;;;;9.10;5.13;;;-1.50;99.90;;;;;;5045984;28;20033;-65
2024/01/08 06:47:40;;;;;;;8.55;4.65;;;-1.50;99.90;;;;;;5016807;28;20471;-64
2024/01/08 06:50:05;;;;;;;9.00;4.20;;;-1.50;99.90;;;;;;5027992;28;20033;-64
2024/01/08 06:52:31;;;;;;;10.43;4.40;;;-1.50;99.90;;;;;;5028593;28;20056;-65
2024/01/08 06:54:57;;;;;;;12.65;5.35;;;-1.50;99.90;;;;;;5038964;28;20120;-64
2024/01/08 06:57:23;;;;;;;10.63;4.82;;;-1.40;99.90;;;;;;5025353;28;20045;-65
2024/01/08 06:59:49;;;;;;;10.68;4.15;;;-1.50;99.90;;;;;;5038571;28;20120;-64
2024/01/08 07:02:15;;;;;;;12.50;4.57;;;-1.40;99.90;;;;;;5030022;28;20517;-64
2024/01/08 07:04:41;;;;;;;8.60;4.50;;;-1.40;99.90;;;;;;5032743;28;20043;-64
2024/01/08 07:07:07;;;;;;;7.32;3.85;;;-1.40;99.90;;;;;;5041575;28;20048;-64
2024/01/08 07:09:32;;;;;;;8.07;4.30;;;-1.40;99.90;;;;;;5035550;28;20478;-65
2024/01/08 07:11:59;;;;;;;10.30;4.50;;;-1.30;99.90;;;;;;5036852;28;20122;-65
2024/01/08 07:14:24;;;;;;;7.40;4.57;;;-1.40;99.90;;;;;;5029692;28;20122;-64
2024/01/08 07:16:51;;;;;;;7.60;4.63;;;-1.30;99.90;;;;;;5035833;28;20045;-65
2024/01/08 07:19:17;;;;;;;11.25;5.70;;;-1.40;99.90;;;;;;5036501;28;20064;-64
2024/01/08 07:21:42;;;;;;;9.95;4.65;;;-1.30;99.90;;;;;;5039710;28;20049;-64
2024/01/08 07:24:08;;;;;;;7.60;4.15;;;-1.30;99.90;;;;;;5029078;28;20045;-64
2024/01/08 07:26:34;;;;;;;9.82;4.20;;;-1.30;99.90;;;;;;5030093;28;20080;-64
2024/01/08 07:29:00;;;;;;;10.55;4.55;;;-1.30;99.90;;;;;;5033277;28;20033;-65
2024/01/08 07:31:25;;;;;;;9.27;4.20;;;-1.30;99.90;;;;;;5032702;28;20064;-64
2024/01/08 07:33:51;;;;;;;9.48;4.63;;;-1.30;99.90;;;;;;5028973;28;20466;-64
2024/01/08 07:36:17;;;;;;;10.48;4.63;;;-1.30;99.90;;;;;;5029173;28;20033;-64
2024/01/08 07:38:42;;;;;;;9.95;4.15;;;-1.30;99.90;;;;;;5028352;28;20116;-65
2024/01/08 07:41:08;;;;;;;10.05;4.35;;;-1.30;99.90;;;;;;5021543;28;20051;-64
2024/01/08 07:43:35;;;;;;;8.55;4.00;;;-1.30;99.90;;;;;;5029155;28;20194;-65
2024/01/08 07:46:01;;;;;;;7.38;4.03;;;-1.20;99.90;;;;;;5048553;28;20045;-64
2024/01/08 07:48:27;;;;;;;11.23;4.30;;;-1.20;99.90;;;;;;5032081;28;20372;-64
2024/01/08 07:50:52;;;;;;;6.68;3.38;;;-1.20;99.90;;;;;;5015678;28;20041;-64
2024/01/08 07:53:18;;;;;;;7.65;4.40;;;-1.20;99.90;;;;;;5032556;28;20400;-64
2024/01/08 07:55:44;;;;;;;12.68;5.38;;;-1.20;99.90;;;;;;5017910;28;20457;-64
2024/01/08 07:58:13;;;;;;;9.32;4.90;;;-1.20;99.90;;;;;;5027774;28;20055;-65
2024/01/08 08:00:40;;;;;;;7.35;3.80;;;-1.20;99.90;;;;;;5035182;28;20062;-64
2024/01/08 08:03:06;;;;;;;9.88;3.90;;;-1.20;99.90;;;;;;5027115;28;20037;-64
2024/01/08 08:05:31;;;;;;;9.57;4.20;;;-1.20;99.90;;;;;;5030514;28;20029;-65
2024/01/08 08:07:57;;;;;;;9.13;4.03;;;-1.20;99.90;;;;;;5035785;28;20029;-64
2024/01/08 08:10:23;;;;;;;7.78;4.72;;;-1.10;99.90;;;;;;5038719;28;20099;-64
2024/01/08 08:12:49;;;;;;;10.98;4.35;;;-1.10;99.90;;;;;;5031602;28;20397;-64
2024/01/08 08:15:15;;;;;;;8.90;4.05;;;-1.10;99.90;;;;;;5029313;28;20037;-64
2024/01/08 08:17:40;;;;;;;14.10;4.80;;;-1.10;99.90;;;;;;5042902;28;20049;-64
2024/01/08 08:20:07;;;;;;;6.97;4.13;;;-1.10;99.90;;;;;;5037392;28;20094;-65
2024/01/08 08:22:32;;;;;;;11.35;4.53;;;-1.00;99.90;;;;;;5042508;28;20552;-64
2024/01/08 08:24:58;;;;;;;7.22;4.13;;;-1.00;99.90;;;;;;5021136;28;20045;-64
2024/01/08 08:27:24;;;;;;;10.48;4.18;;;-1.00;99.90;;;;;;5036678;28;20044;-64
2024/01/08 08:29:49;;;;;;;7.95;4.05;;;-1.00;99.90;;;;;;5037883;28;20037;-64
2024/01/08 08:32:15;;;;;;;6.75;4.30;;;-1.00;99.90;;;;;;5041981;28;20064;-64
2024/01/08 08:34:41;;;;;;;8.05;3.92;;;-1.10;99.90;;;;;;5047126;28;20076;-65
2024/01/08 08:37:10;;;;;;;10.75;3.97;;;-1.10;99.90;;;;;;5048499;28;20048;-64
2024/01/08 08:39:36;;;;;;;7.55;4.07;;;-1.10;99.90;;;;;;5057990;28;20053;-64
2024/01/08 08:42:03;;;;;;;6.53;4.18;;;-1.20;99.90;;;;;;5038362;28;20037;-64
2024/01/08 08:44:29;;;;;;;9.38;3.50;;;-1.10;99.90;;;;;;5023839;28;20045;-63
2024/01/08 08:46:54;;;;;;;6.50;3.50;;;-1.10;99.90;;;;;;5039935;28;20038;-63
2024/01/08 08:49:20;;;;;;;7.03;3.92;;;-1.00;99.90;;;;;;5033248;28;20815;-66
2024/01/08 08:51:46;;;;;;;8.02;3.45;;;-1.00;99.90;;;;;;5040930;28;20094;-64
2024/01/08 08:54:12;;;;;;;10.52;4.10;;;-1.00;99.90;;;;;;5038834;28;20478;-64
2024/01/08 08:56:38;;;;;;;7.60;3.95;;;-0.90;99.90;;;;;;5033704;28;20044;-64
2024/01/08 08:59:04;;;;;;;8.25;3.22;;;-0.90;99.90;;;;;;5032690;28;20029;-65
2024/01/08 09:01:30;;;;;;;8.15;3.40;;;-0.90;99.90;;;;;;5032361;28;20136;-64
2024/01/08 09:03:55;;;;;;;8.45;3.58;;;-0.80;99.90;;;;;;5031403;28;20117;-65
2024/01/08 09:06:27;;;;;;;7.60;2.92;;;-0.80;99.90;;;;;;5031038;28;20048;-65
2024/01/08 09:08:53;;;;;;;6.55;3.10;;;-0.80;99.90;;;;;;5031836;28;20052;-65
2024/01/08 09:11:20;;;;;;;6.50;3.10;;;-0.80;99.90;;;;;;5035547;28;20045;-64
2024/01/08 09:13:47;;;;;;;8.60;3.10;;;-0.80;99.90;;;;;;5036486;28;20040;-64
2024/01/08 09:16:14;;;;;;;4.60;3.20;;;-0.90;99.90;;;;;;5036582;28;20646;-65
2024/01/08 09:18:40;;;;;;;8.07;3.25;;;-0.90;99.90;;;;;;5032410;28;20449;-66
2024/01/08 09:21:08;;;;;;;5.93;3.58;;;-0.90;99.90;;;;;;5037801;28;20156;-65
2024/01/08 09:23:33;;;;;;;5.68;3.08;;;-0.90;99.90;;;;;;5039663;28;20087;-66
2024/01/08 09:25:59;;;;;;;6.57;3.45;;;-0.90;99.90;;;;;;5035543;28;20060;-64
2024/01/08 09:28:25;;;;;;;5.03;3.25;;;-0.90;99.90;;;;;;5032694;28;20428;-66
2024/01/08 09:30:52;;;;;;;7.22;3.25;;;-0.80;99.90;;;;;;5043610;28;20148;-66
2024/01/08 09:33:17;;;;;;;7.22;3.78;;;-0.70;99.90;;;;;;5032519;28;20405;-65
2024/01/08 09:35:43;;;;;;;7.45;3.17;;;-0.70;99.90;;;;;;5030438;28;20041;-65
2024/01/08 09:38:09;;;;;;;10.27;4.32;;;-0.70;99.90;;;;;;5014995;28;20041;-65
2024/01/08 09:40:34;;;;;;;7.68;3.00;;;-0.60;99.90;;;;;;5033120;28;20033;-65
2024/01/08 09:43:06;;;;;;;5.78;3.53;;;-0.60;99.90;;;;;;5040583;28;20507;-65
2024/01/08 09:45:32;;;;;;;7.03;3.70;;;-0.60;99.90;;;;;;5031014;28;20049;-65
2024/01/08 09:47:58;;;;;;;6.78;3.05;;;-0.50;99.90;;;;;;5031649;28;20072;-65
2024/01/08 09:50:26;;;;;;;8.35;3.50;;;-0.50;99.90;;;;;;5032736;28;20438;-66
2024/01/08 09:52:53;;;;;;;7.60;3.83;;;-0.50;99.90;;;;;;5016165;28;20033;-65
2024/01/08 09:55:19;;;;;;;9.07;3.42;;;-0.50;99.90;;;;;;5031051;28;22798;-65
2024/01/08 09:57:45;;;;;;;5.70;3.65;;;-0.50;99.90;;;;;;5036447;28;20040;-65
2024/01/08 10:00:11;;;;;;;8.23;3.55;;;-0.40;99.90;;;;;;5037367;28;20047;-65
2024/01/08 10:02:38;;;;;;;6.55;3.33;;;-0.40;99.90;;;;;;5044033;28;20051;-65
2024/01/08 10:05:07;;;;;;;7.70;3.67;;;-0.30;99.90;;;;;;5037944;28;20045;-65
2024/01/08 10:07:36;;;;;;;7.00;3.10;;;-0.20;99.90;;;;;;5014974;28;20041;-65
2024/01/08 10:10:03;;;;;;;5.83;3.03;;;-0.20;99.90;;;;;;5035812;28;20056;-64
2024/01/08 10:12:32;;;;;;;6.47;3.58;;;-0.20;99.90;;;;;;5045440;28;20041;-66
2024/01/08 10:14:58;;;;;;;4.93;3.10;;;-0.20;99.90;;;;;;5038380;28;20586;-65
2024/01/08 10:17:24;;;;;;;6.38;3.00;;;-0.10;99.90;;;;;;5042942;28;20087;-66
2024/01/08 10:19:49;;;;;;;6.68;3.35;;;-0.10;99.90;;;;;;5035278;28;20405;-65
2024/01/08 10:22:15;;;;;;;5.65;3.00;;;-0.10;99.90;;;;;;5030020;28;20056;-65
2024/01/08 10:24:43;;;;;;;6.38;3.65;;;-0.10;99.90;;;;;;5027307;28;20056;-66
2024/01/08 10:27:10;;;;;;;5.03;3.17;;;-0.10;99.90;;;;;;5024792;28;20054;-65
2024/01/08 10:29:37;;;;;;;7.35;3.70;;;-0.10;99.90;;;;;;5037363;28;20504;-66
2024/01/08 10:32:04;;;;;;;5.35;2.70;;;-0.10;99.90;;;;;;5019117;28;20064;-66
2024/01/08 10:34:31;;;;;;;5.70;3.05;;;-0.20;99.90;;;;;;5030463;28;20126;-65
2024/01/08 10:36:57;;;;;;;6.53;3.88;;;-0.10;99.90;;;;;;5046678;28;20045;-66
2024/01/08 10:39:25;;;;;;;6.25;2.95;;;-0.10;99.90;;;;;;5014678;28;20665;-65
2024/01/08 10:41:50;;;;;;;6.65;3.15;;;-0.10;99.90;;;;;;5032824;28;20037;-66
2024/01/08 10:44:16;;;;;;;8.27;3.28;;;-0.10;99.90;;;;;;5028593;28;20041;-66
2024/01/08 10:46:53;;;;;;;8.80;3.15;;;-0.10;99.90;;;;;;5019364;28;20132;-66
2024/01/08 10:49:19;;;;;;;7.63;3.50;;;-0.10;99.90;;;;;;5013799;28;20170;-65
2024/01/08 10:51:48;;;;;;;9.25;4.30;;;-0.10;99.90;;;;;;5036989;28;20351;-65
2024/01/08 10:54:19;;;;;;;5.32;3.28;;;-0.10;99.90;;;;;;5023015;28;20039;-67
2024/01/08 10:56:47;;;;;;;;;;;-0.10;99.90;;;;;;5039305;28;20171;-66
2024/01/08 10:59:21;;;;;;;7.97;3.28;;;-0.10;99.90;;;;;;5032149;28;20384;-66
2024/01/08 11:01:47;;;;;;;7.35;2.97;;;-0.10;99.90;;;;;;5039602;28;20076;-67
2024/01/08 11:04:14;;;;;;;8.30;2.63;;;-0.10;99.90;;;;;;5050777;28;20362;-67
2024/01/08 11:06:42;;;;;;;6.85;2.97;;;-0.20;99.90;;;;;;5046838;28;20078;-66
2024/01/08 11:09:31;;;;;;;5.00;2.83;;;-0.10;99.90;;;;;;5031819;28;20051;-67
2024/01/08 11:11:57;;;;;;;6.68;3.17;;;-0.10;99.90;;;;;;5049816;28;20053;-67
2024/01/08 11:14:24;;;;;;;7.45;3.40;;;-0.10;99.90;;;;;;5032211;28;20056;-66
2024/01/08 11:16:51;;;;;;;3.58;2.60;;;-0.10;99.90;;;;;;5047778;28;20068;-66
2024/01/08 11:19:20;;;;;;;4.32;2.80;;;0.00;99.90;;;;;;5048835;28;20056;-66
2024/01/08 11:21:49;;;;;;;5.22;3.20;;;0.10;99.90;;;;;;5033634;28;20087;-66
2024/01/08 11:24:15;;;;;;;7.45;3.03;;;0.20;99.90;;;;;;5031325;28;20061;-66
2024/01/08 11:26:44;;;;;;;4.07;2.65;;;0.10;99.90;;;;;;5041359;28;20049;-66
2024/01/08 11:29:11;;;;;;;4.75;2.88;;;0.10;99.90;;;;;;5032064;28;20095;-66
2024/01/08 11:32:03;;;;;;;6.43;3.70;;;0.10;99.90;;;;;;5031661;28;20418;-67
2024/01/08 11:34:50;;;;;;;6.60;3.42;;;0.00;99.90;;;;;;5032445;28;20132;-67
2024/01/08 11:37:31;;;;;;;5.32;3.08;;;0.00;99.90;;;;;;5045264;28;20049;-67
2024/01/08 11:40:00;;;;;;;4.85;3.22;;;0.00;99.90;;;;;;5016491;28;20041;-67
2024/01/08 11:42:25;;;;;;;7.15;3.15;;;0.00;99.90;;;;;;5039228;28;20041;-67
2024/01/08 11:44:51;;;;;;;6.05;3.08;;;0.10;99.90;;;;;;5040379;28;20045;-66
2024/01/08 11:47:17;;;;;;;4.45;2.50;;;0.20;99.90;;;;;;5038576;28;20144;-67
2024/01/08 11:49:43;;;;;;;4.70;3.10;;;0.20;99.90;;;;;;5018793;28;20029;-65
2024/01/08 11:52:09;;;;;;;4.63;2.83;;;0.30;99.90;;;;;;5020526;28;20072;-68
2024/01/08 11:54:35;;;;;;;4.85;3.25;;;0.20;99.90;;;;;;5029345;28;20060;-65
2024/01/08 11:57:02;;;;;;;4.20;2.63;;;0.20;99.90;;;;;;5032619;28;20037;-67
2024/01/08 11:59:34;;;;;;;3.60;2.67;;;0.20;99.90;;;;;;5039540;28;20516;-67
2024/01/08 12:02:14;;;;;;;4.15;2.70;;;0.00;99.90;;;;;;5031051;28;20466;-65
2024/01/08 12:04:50;;;;;;;7.78;2.95;;;0.00;99.90;;;;;;5028041;28;20056;-64
2024/01/08 12:07:16;;;;;;;6.20;3.03;;;0.00;99.90;;;;;;5022044;28;20052;-64
2024/01/08 12:09:41;;;;;;;6.15;3.03;;;0.10;99.90;;;;;;5029513;28;20438;-66
2024/01/08 12:12:10;;;;;;;4.13;2.75;;;0.20;99.90;;;;;;5042428;28;20037;-67
2024/01/08 12:14:36;;;;;;;6.35;3.30;;;0.30;99.90;;;;;;5038151;28;20041;-66
2024/01/08 12:17:03;;;;;;;6.07;3.10;;;0.40;99.90;;;;;;5035411;28;20052;-68
2024/01/08 12:19:49;;;;;;;5.45;3.00;;;0.40;99.90;;;;;;5011400;28;20056;-67
2024/01/08 12:22:17;;;;;;;4.28;3.13;;;0.30;99.90;;;;;;5016429;28;20042;-66
2024/01/08 12:24:47;;;;;;;5.47;2.88;;;0.30;99.90;;;;;;5037336;28;20045;-66
2024/01/08 12:27:18;;;;;;;6.65;3.70;;;0.20;99.90;;;;;;5028628;28;20127;-66
2024/01/08 12:29:45;;;;;;;4.82;2.75;;;0.20;99.90;;;;;;5033789;28;20045;-65
2024/01/08 12:32:14;;;;;;;7.00;3.20;;;0.10;99.90;;;;;;5038390;28;20088;-68
2024/01/08 12:34:40;;;;;;;4.53;2.90;;;0.10;99.90;;;;;;5030329;28;20520;-66
2024/01/08 12:37:07;;;;;;;5.75;3.05;;;-0.10;99.90;;;;;;5044699;28;20040;-65
2024/01/08 12:39:34;;;;;;;4.88;2.67;;;-0.20;99.90;;;;;;5028873;28;20409;-65
2024/01/08 12:42:00;;;;;;;3.75;2.30;;;-0.20;99.90;;;;;;5040418;28;20041;-66